sensor_id;sensor_type;location;lat;lon;timestamp;temperature;humidity
47861;HTU21D;33620;52.340;5.984;2023-04-05T00:02:05;5.52;66.45
47861;HTU21D;33620;52.340;5.984;2023-04-05T00:04:35;5.47;66.69
47861;HTU21D;33620;52.340;5.984;2023-04-05T00:07:02;5.43;66.98
47861;HTU21D;33620;52.340;5.984;2023-04-05T00:09:32;5.42;67.07
47861;HTU21D;33620;52.340;5.984;2023-04-05T00:11:57;5.41;67.22
47861;HTU21D;33620;52.340;5.984;2023-04-05T00:14:22;5.40;67.43
47861;HTU21D;33620;52.340;5.984;2023-04-05T00:16:47;5.37;67.49
47861;HTU21D;33620;52.340;5.984;2023-04-05T00:19:13;5.34;67.55
47861;HTU21D;33620;52.340;5.984;2023-04-05T00:21:39;5.27;67.71
47861;HTU21D;33620;52.340;5.984;2023-04-05T00:24:04;5.22;67.73
47861;HTU21D;33620;52.340;5.984;2023-04-05T00:26:30;5.18;67.88
47861;HTU21D;33620;52.340;5.984;2023-04-05T00:28:55;5.12;68.07
47861;HTU21D;33620;52.340;5.984;2023-04-05T00:31:20;5.12;68.37
47861;HTU21D;33620;52.340;5.984;2023-04-05T00:33:46;5.13;68.32
47861;HTU21D;33620;52.340;5.984;2023-04-05T00:36:12;5.10;68.42
47861;HTU21D;33620;52.340;5.984;2023-04-05T00:38:38;5.08;68.57
47861;HTU21D;33620;52.340;5.984;2023-04-05T00:41:03;5.05;68.58
47861;HTU21D;33620;52.340;5.984;2023-04-05T00:43:29;5.01;68.67
47861;HTU21D;33620;52.340;5.984;2023-04-05T00:45:55;4.97;68.75
47861;HTU21D;33620;52.340;5.984;2023-04-05T00:48:20;4.94;68.85
47861;HTU21D;33620;52.340;5.984;2023-04-05T00:50:49;4.92;68.88
47861;HTU21D;33620;52.340;5.984;2023-04-05T00:53:16;4.90;69.01
47861;HTU21D;33620;52.340;5.984;2023-04-05T00:55:42;4.86;68.85
47861;HTU21D;33620;52.340;5.984;2023-04-05T00:58:08;4.82;69.05
47861;HTU21D;33620;52.340;5.984;2023-04-05T01:00:35;4.82;69.11
47861;HTU21D;33620;52.340;5.984;2023-04-05T01:03:02;4.78;69.08
47861;HTU21D;33620;52.340;5.984;2023-04-05T01:10:38;4.72;69.36
47861;HTU21D;33620;52.340;5.984;2023-04-05T01:13:04;4.66;69.22
47861;HTU21D;33620;52.340;5.984;2023-04-05T01:15:30;4.63;69.53
47861;HTU21D;33620;52.340;5.984;2023-04-05T01:17:56;4.53;69.60
47861;HTU21D;33620;52.340;5.984;2023-04-05T01:20:21;4.47;69.66
47861;HTU21D;33620;52.340;5.984;2023-04-05T01:28:11;4.27;69.98
47861;HTU21D;33620;52.340;5.984;2023-04-05T01:30:43;4.18;70.21
47861;HTU21D;33620;52.340;5.984;2023-04-05T01:33:15;4.12;70.29
47861;HTU21D;33620;52.340;5.984;2023-04-05T01:36:26;4.06;70.35
47861;HTU21D;33620;52.340;5.984;2023-04-05T01:38:30;4.02;70.63
47861;HTU21D;33620;52.340;5.984;2023-04-05T01:40:56;3.94;70.47
47861;HTU21D;33620;52.340;5.984;2023-04-05T01:43:21;3.88;70.43
47861;HTU21D;33620;52.340;5.984;2023-04-05T01:45:46;3.82;70.48
47861;HTU21D;33620;52.340;5.984;2023-04-05T01:48:12;3.75;70.64
47861;HTU21D;33620;52.340;5.984;2023-04-05T01:50:38;3.68;70.74
47861;HTU21D;33620;52.340;5.984;2023-04-05T01:53:03;3.62;70.97
47861;HTU21D;33620;52.340;5.984;2023-04-05T01:55:28;3.57;71.05
47861;HTU21D;33620;52.340;5.984;2023-04-05T01:57:54;3.53;71.10
47861;HTU21D;33620;52.340;5.984;2023-04-05T02:00:20;3.54;71.19
47861;HTU21D;33620;52.340;5.984;2023-04-05T02:02:45;3.50;71.32
47861;HTU21D;33620;52.340;5.984;2023-04-05T02:05:11;3.48;71.58
47861;HTU21D;33620;52.340;5.984;2023-04-05T02:07:36;3.45;71.55
47861;HTU21D;33620;52.340;5.984;2023-04-05T02:10:02;3.43;71.67
47861;HTU21D;33620;52.340;5.984;2023-04-05T02:12:27;3.39;71.61
47861;HTU21D;33620;52.340;5.984;2023-04-05T02:14:52;3.33;71.48
47861;HTU21D;33620;52.340;5.984;2023-04-05T02:17:18;3.28;71.48
47861;HTU21D;33620;52.340;5.984;2023-04-05T02:19:43;3.24;71.74
47861;HTU21D;33620;52.340;5.984;2023-04-05T02:22:10;3.20;71.68
47861;HTU21D;33620;52.340;5.984;2023-04-05T02:24:35;3.17;71.80
47861;HTU21D;33620;52.340;5.984;2023-04-05T02:27:01;3.12;71.85
47861;HTU21D;33620;52.340;5.984;2023-04-05T02:29:26;3.06;72.09
47861;HTU21D;33620;52.340;5.984;2023-04-05T02:31:52;3.01;71.99
47861;HTU21D;33620;52.340;5.984;2023-04-05T02:34:17;2.95;71.88
47861;HTU21D;33620;52.340;5.984;2023-04-05T02:36:42;2.86;72.25
47861;HTU21D;33620;52.340;5.984;2023-04-05T02:39:08;2.87;72.46
47861;HTU21D;33620;52.340;5.984;2023-04-05T02:41:34;2.88;72.54
47861;HTU21D;33620;52.340;5.984;2023-04-05T02:43:59;2.86;72.65
47861;HTU21D;33620;52.340;5.984;2023-04-05T02:46:25;2.83;72.87
47861;HTU21D;33620;52.340;5.984;2023-04-05T02:48:50;2.82;73.06
47861;HTU21D;33620;52.340;5.984;2023-04-05T02:51:15;2.86;73.14
47861;HTU21D;33620;52.340;5.984;2023-04-05T02:53:41;2.84;73.17
47861;HTU21D;33620;52.340;5.984;2023-04-05T02:56:06;2.84;73.20
47861;HTU21D;33620;52.340;5.984;2023-04-05T02:58:31;2.85;73.36
47861;HTU21D;33620;52.340;5.984;2023-04-05T03:00:58;2.86;73.10
47861;HTU21D;33620;52.340;5.984;2023-04-05T03:03:25;2.85;73.15
47861;HTU21D;33620;52.340;5.984;2023-04-05T03:05:56;2.86;73.14
47861;HTU21D;33620;52.340;5.984;2023-04-05T03:08:22;2.86;73.21
47861;HTU21D;33620;52.340;5.984;2023-04-05T03:10:49;2.87;73.23
47861;HTU21D;33620;52.340;5.984;2023-04-05T03:13:15;2.93;73.44
47861;HTU21D;33620;52.340;5.984;2023-04-05T03:15:40;2.95;73.15
47861;HTU21D;33620;52.340;5.984;2023-04-05T03:18:06;2.88;72.93
47861;HTU21D;33620;52.340;5.984;2023-04-05T03:20:32;2.82;73.17
47861;HTU21D;33620;52.340;5.984;2023-04-05T03:22:59;2.78;73.38
47861;HTU21D;33620;52.340;5.984;2023-04-05T03:25:24;2.71;73.22
47861;HTU21D;33620;52.340;5.984;2023-04-05T03:27:50;2.66;73.11
47861;HTU21D;33620;52.340;5.984;2023-04-05T03:30:17;2.57;73.24
47861;HTU21D;33620;52.340;5.984;2023-04-05T03:32:42;2.54;73.34
47861;HTU21D;33620;52.340;5.984;2023-04-05T03:35:07;2.51;73.66
47861;HTU21D;33620;52.340;5.984;2023-04-05T03:37:33;2.50;73.66
47861;HTU21D;33620;52.340;5.984;2023-04-05T03:39:58;2.46;73.73
47861;HTU21D;33620;52.340;5.984;2023-04-05T03:42:23;2.43;73.78
47861;HTU21D;33620;52.340;5.984;2023-04-05T03:44:51;2.40;73.89
47861;HTU21D;33620;52.340;5.984;2023-04-05T03:47:16;2.38;73.98
47861;HTU21D;33620;52.340;5.984;2023-04-05T03:49:41;2.37;73.96
47861;HTU21D;33620;52.340;5.984;2023-04-05T03:52:07;2.36;74.07
47861;HTU21D;33620;52.340;5.984;2023-04-05T03:54:33;2.38;74.06
47861;HTU21D;33620;52.340;5.984;2023-04-05T03:56:58;2.35;73.92
47861;HTU21D;33620;52.340;5.984;2023-04-05T03:59:25;2.35;74.13
47861;HTU21D;33620;52.340;5.984;2023-04-05T04:01:50;2.34;73.94
47861;HTU21D;33620;52.340;5.984;2023-04-05T04:04:15;2.34;73.96
47861;HTU21D;33620;52.340;5.984;2023-04-05T04:06:41;2.30;74.08
47861;HTU21D;33620;52.340;5.984;2023-04-05T04:09:06;2.26;74.06
47861;HTU21D;33620;52.340;5.984;2023-04-05T04:11:31;2.27;74.37
47861;HTU21D;33620;52.340;5.984;2023-04-05T04:13:57;2.29;74.33
47861;HTU21D;33620;52.340;5.984;2023-04-05T04:16:22;2.32;74.25
47861;HTU21D;33620;52.340;5.984;2023-04-05T04:18:47;2.34;74.20
47861;HTU21D;33620;52.340;5.984;2023-04-05T04:21:13;2.36;74.04
47861;HTU21D;33620;52.340;5.984;2023-04-05T04:23:40;2.36;73.87
47861;HTU21D;33620;52.340;5.984;2023-04-05T04:26:10;2.32;73.97
47861;HTU21D;33620;52.340;5.984;2023-04-05T04:28:35;2.31;73.97
47861;HTU21D;33620;52.340;5.984;2023-04-05T04:31:03;2.29;73.92
47861;HTU21D;33620;52.340;5.984;2023-04-05T04:33:29;2.28;73.90
47861;HTU21D;33620;52.340;5.984;2023-04-05T04:35:55;2.21;74.08
47861;HTU21D;33620;52.340;5.984;2023-04-05T04:38:20;2.19;74.26
47861;HTU21D;33620;52.340;5.984;2023-04-05T04:40:45;2.14;74.33
47861;HTU21D;33620;52.340;5.984;2023-04-05T04:43:11;2.08;74.31
47861;HTU21D;33620;52.340;5.984;2023-04-05T04:45:45;2.08;74.54
47861;HTU21D;33620;52.340;5.984;2023-04-05T04:48:12;2.10;74.49
47861;HTU21D;33620;52.340;5.984;2023-04-05T04:50:38;2.11;74.56
47861;HTU21D;33620;52.340;5.984;2023-04-05T04:53:04;2.11;74.40
47861;HTU21D;33620;52.340;5.984;2023-04-05T04:55:29;2.09;74.31
47861;HTU21D;33620;52.340;5.984;2023-04-05T04:57:57;2.08;74.44
47861;HTU21D;33620;52.340;5.984;2023-04-05T05:00:23;2.10;74.55
47861;HTU21D;33620;52.340;5.984;2023-04-05T05:02:52;2.11;74.46
47861;HTU21D;33620;52.340;5.984;2023-04-05T05:05:17;2.11;74.29
47861;HTU21D;33620;52.340;5.984;2023-04-05T05:07:47;2.11;74.31
47861;HTU21D;33620;52.340;5.984;2023-04-05T05:10:12;2.15;74.44
47861;HTU21D;33620;52.340;5.984;2023-04-05T05:12:40;2.16;74.46
47861;HTU21D;33620;52.340;5.984;2023-04-05T05:15:05;2.15;74.26
47861;HTU21D;33620;52.340;5.984;2023-04-05T05:17:31;2.11;74.11
47861;HTU21D;33620;52.340;5.984;2023-04-05T05:19:56;2.03;74.26
47861;HTU21D;33620;52.340;5.984;2023-04-05T05:22:24;2.00;74.58
47861;HTU21D;33620;52.340;5.984;2023-04-05T05:24:50;1.97;74.76
47861;HTU21D;33620;52.340;5.984;2023-04-05T05:27:15;1.94;74.80
47861;HTU21D;33620;52.340;5.984;2023-04-05T05:29:40;1.90;75.05
47861;HTU21D;33620;52.340;5.984;2023-04-05T05:32:05;1.86;74.83
47861;HTU21D;33620;52.340;5.984;2023-04-05T05:34:33;1.83;74.99
47861;HTU21D;33620;52.340;5.984;2023-04-05T05:36:58;1.81;75.04
47861;HTU21D;33620;52.340;5.984;2023-04-05T05:39:24;1.80;75.01
47861;HTU21D;33620;52.340;5.984;2023-04-05T05:41:49;1.79;75.25
47861;HTU21D;33620;52.340;5.984;2023-04-05T05:44:15;1.79;75.47
47861;HTU21D;33620;52.340;5.984;2023-04-05T05:46:40;1.83;75.62
47861;HTU21D;33620;52.340;5.984;2023-04-05T05:49:05;1.83;75.47
47861;HTU21D;33620;52.340;5.984;2023-04-05T05:51:31;1.82;75.48
47861;HTU21D;33620;52.340;5.984;2023-04-05T05:54:00;1.84;75.60
47861;HTU21D;33620;52.340;5.984;2023-04-05T05:56:25;1.88;75.73
47861;HTU21D;33620;52.340;5.984;2023-04-05T05:58:50;1.91;75.80
47861;HTU21D;33620;52.340;5.984;2023-04-05T06:01:16;1.94;75.83
47861;HTU21D;33620;52.340;5.984;2023-04-05T06:03:41;1.97;75.73
47861;HTU21D;33620;52.340;5.984;2023-04-05T06:06:06;1.98;75.66
47861;HTU21D;33620;52.340;5.984;2023-04-05T06:08:35;1.98;75.63
47861;HTU21D;33620;52.340;5.984;2023-04-05T06:11:01;2.02;75.50
47861;HTU21D;33620;52.340;5.984;2023-04-05T06:13:27;2.01;75.44
47861;HTU21D;33620;52.340;5.984;2023-04-05T06:15:52;2.01;75.67
47861;HTU21D;33620;52.340;5.984;2023-04-05T06:18:17;2.07;75.92
47861;HTU21D;33620;52.340;5.984;2023-04-05T06:20:44;2.10;76.01
47861;HTU21D;33620;52.340;5.984;2023-04-05T06:23:10;2.16;76.10
47861;HTU21D;33620;52.340;5.984;2023-04-05T06:25:35;2.23;76.02
47861;HTU21D;33620;52.340;5.984;2023-04-05T06:28:04;2.25;75.98
47861;HTU21D;33620;52.340;5.984;2023-04-05T06:30:30;2.30;76.13
47861;HTU21D;33620;52.340;5.984;2023-04-05T06:32:55;2.37;76.32
47861;HTU21D;33620;52.340;5.984;2023-04-05T06:35:21;2.44;76.44
47861;HTU21D;33620;52.340;5.984;2023-04-05T06:37:47;2.55;76.73
47861;HTU21D;33620;52.340;5.984;2023-04-05T06:40:12;2.66;76.83
47861;HTU21D;33620;52.340;5.984;2023-04-05T06:42:38;2.71;76.52
47861;HTU21D;33620;52.340;5.984;2023-04-05T06:45:03;2.76;76.63
47861;HTU21D;33620;52.340;5.984;2023-04-05T06:47:32;2.86;76.63
47861;HTU21D;33620;52.340;5.984;2023-04-05T06:49:57;2.90;76.54
47861;HTU21D;33620;52.340;5.984;2023-04-05T06:52:22;3.00;76.59
47861;HTU21D;33620;52.340;5.984;2023-04-05T06:54:48;3.05;76.29
47861;HTU21D;33620;52.340;5.984;2023-04-05T06:57:13;3.13;75.93
47861;HTU21D;33620;52.340;5.984;2023-04-05T06:59:38;3.23;75.70
47861;HTU21D;33620;52.340;5.984;2023-04-05T07:02:03;3.30;75.71
47861;HTU21D;33620;52.340;5.984;2023-04-05T07:04:29;3.38;75.44
47861;HTU21D;33620;52.340;5.984;2023-04-05T07:06:59;3.46;75.15
47861;HTU21D;33620;52.340;5.984;2023-04-05T07:09:26;3.56;75.04
47861;HTU21D;33620;52.340;5.984;2023-04-05T07:11:55;3.61;74.70
47861;HTU21D;33620;52.340;5.984;2023-04-05T07:14:21;3.68;74.58
47861;HTU21D;33620;52.340;5.984;2023-04-05T07:16:47;3.72;74.15
47861;HTU21D;33620;52.340;5.984;2023-04-05T07:19:12;3.75;74.30
47861;HTU21D;33620;52.340;5.984;2023-04-05T07:21:37;3.82;74.31
47861;HTU21D;33620;52.340;5.984;2023-04-05T07:24:03;3.87;74.15
47861;HTU21D;33620;52.340;5.984;2023-04-05T07:26:28;3.91;74.21
47861;HTU21D;33620;52.340;5.984;2023-04-05T07:28:54;3.95;74.14
47861;HTU21D;33620;52.340;5.984;2023-04-05T07:31:19;4.00;73.77
47861;HTU21D;33620;52.340;5.984;2023-04-05T07:33:44;4.09;74.02
47861;HTU21D;33620;52.340;5.984;2023-04-05T07:36:10;4.15;73.62
47861;HTU21D;33620;52.340;5.984;2023-04-05T07:38:35;4.19;73.54
47861;HTU21D;33620;52.340;5.984;2023-04-05T07:41:00;4.28;73.47
47861;HTU21D;33620;52.340;5.984;2023-04-05T07:43:25;4.36;73.06
47861;HTU21D;33620;52.340;5.984;2023-04-05T07:45:51;4.44;72.93
47861;HTU21D;33620;52.340;5.984;2023-04-05T07:48:18;4.50;72.61
47861;HTU21D;33620;52.340;5.984;2023-04-05T07:50:43;4.57;72.54
47861;HTU21D;33620;52.340;5.984;2023-04-05T07:53:12;4.68;72.44
47861;HTU21D;33620;52.340;5.984;2023-04-05T07:55:37;4.77;71.58
47861;HTU21D;33620;52.340;5.984;2023-04-05T07:58:03;4.87;70.34
47861;HTU21D;33620;52.340;5.984;2023-04-05T08:00:28;4.96;70.32
47861;HTU21D;33620;52.340;5.984;2023-04-05T08:02:53;5.04;70.21
47861;HTU21D;33620;52.340;5.984;2023-04-05T08:05:19;5.15;70.55
47861;HTU21D;33620;52.340;5.984;2023-04-05T08:07:44;5.20;70.10
47861;HTU21D;33620;52.340;5.984;2023-04-05T08:10:09;5.27;69.16
47861;HTU21D;33620;52.340;5.984;2023-04-05T08:12:35;5.34;69.00
47861;HTU21D;33620;52.340;5.984;2023-04-05T08:15:00;5.38;68.67
47861;HTU21D;33620;52.340;5.984;2023-04-05T08:17:25;5.42;69.10
47861;HTU21D;33620;52.340;5.984;2023-04-05T08:19:52;5.45;68.92
47861;HTU21D;33620;52.340;5.984;2023-04-05T08:22:18;5.50;67.70
47861;HTU21D;33620;52.340;5.984;2023-04-05T08:24:43;5.55;67.45
47861;HTU21D;33620;52.340;5.984;2023-04-05T08:27:09;5.62;66.96
47861;HTU21D;33620;52.340;5.984;2023-04-05T08:29:34;5.69;66.85
47861;HTU21D;33620;52.340;5.984;2023-04-05T08:31:59;5.77;66.50
47861;HTU21D;33620;52.340;5.984;2023-04-05T08:34:25;5.82;66.11
47861;HTU21D;33620;52.340;5.984;2023-04-05T08:36:50;5.89;65.66
47861;HTU21D;33620;52.340;5.984;2023-04-05T08:39:15;5.97;65.85
47861;HTU21D;33620;52.340;5.984;2023-04-05T08:41:43;6.06;65.61
47861;HTU21D;33620;52.340;5.984;2023-04-05T08:44:09;6.12;63.85
47861;HTU21D;33620;52.340;5.984;2023-04-05T08:46:35;6.13;63.12
47861;HTU21D;33620;52.340;5.984;2023-04-05T08:49:04;6.20;63.02
47861;HTU21D;33620;52.340;5.984;2023-04-05T08:51:30;6.27;63.12
47861;HTU21D;33620;52.340;5.984;2023-04-05T08:53:57;6.36;63.21
47861;HTU21D;33620;52.340;5.984;2023-04-05T08:56:30;6.42;62.86
47861;HTU21D;33620;52.340;5.984;2023-04-05T08:59:05;6.49;62.51
47861;HTU21D;33620;52.340;5.984;2023-04-05T09:01:32;6.56;60.64
47861;HTU21D;33620;52.340;5.984;2023-04-05T09:03:59;6.65;60.79
47861;HTU21D;33620;52.340;5.984;2023-04-05T09:06:25;6.71;59.57
47861;HTU21D;33620;52.340;5.984;2023-04-05T09:08:55;6.82;59.90
47861;HTU21D;33620;52.340;5.984;2023-04-05T09:11:21;6.91;58.64
47861;HTU21D;33620;52.340;5.984;2023-04-05T09:13:46;6.97;56.29
47861;HTU21D;33620;52.340;5.984;2023-04-05T09:16:13;7.09;55.71
47861;HTU21D;33620;52.340;5.984;2023-04-05T09:18:38;7.15;55.43
47861;HTU21D;33620;52.340;5.984;2023-04-05T09:21:04;7.22;54.96
47861;HTU21D;33620;52.340;5.984;2023-04-05T09:23:30;7.23;55.11
47861;HTU21D;33620;52.340;5.984;2023-04-05T09:25:55;7.31;55.24
47861;HTU21D;33620;52.340;5.984;2023-04-05T09:28:20;7.34;52.06
47861;HTU21D;33620;52.340;5.984;2023-04-05T09:30:46;7.42;53.80
47861;HTU21D;33620;52.340;5.984;2023-04-05T09:33:12;7.53;53.27
47861;HTU21D;33620;52.340;5.984;2023-04-05T09:35:39;7.60;53.16
47861;HTU21D;33620;52.340;5.984;2023-04-05T09:38:05;7.64;50.10
47861;HTU21D;33620;52.340;5.984;2023-04-05T09:43:08;7.84;52.81
47861;HTU21D;33620;52.340;5.984;2023-04-05T09:45:37;7.90;51.00
47861;HTU21D;33620;52.340;5.984;2023-04-05T09:48:03;7.96;50.21
47861;HTU21D;33620;52.340;5.984;2023-04-05T09:50:28;7.99;50.73
47861;HTU21D;33620;52.340;5.984;2023-04-05T09:53:07;8.07;49.86
47861;HTU21D;33620;52.340;5.984;2023-04-05T09:55:32;8.13;48.89
47861;HTU21D;33620;52.340;5.984;2023-04-05T09:57:58;8.21;48.07
47861;HTU21D;33620;52.340;5.984;2023-04-05T10:00:23;8.31;49.21
47861;HTU21D;33620;52.340;5.984;2023-04-05T10:02:52;8.41;48.92
47861;HTU21D;33620;52.340;5.984;2023-04-05T10:05:17;8.49;48.92
47861;HTU21D;33620;52.340;5.984;2023-04-05T10:07:43;8.57;48.14
47861;HTU21D;33620;52.340;5.984;2023-04-05T10:10:09;8.65;47.48
47861;HTU21D;33620;52.340;5.984;2023-04-05T10:12:36;8.66;47.80
47861;HTU21D;33620;52.340;5.984;2023-04-05T10:15:02;8.77;48.98
47861;HTU21D;33620;52.340;5.984;2023-04-05T10:17:29;8.88;47.83
47861;HTU21D;33620;52.340;5.984;2023-04-05T10:20:17;8.97;47.85
47861;HTU21D;33620;52.340;5.984;2023-04-05T10:27:46;8.90;45.03
47861;HTU21D;33620;52.340;5.984;2023-04-05T10:30:11;8.93;46.50
47861;HTU21D;33620;52.340;5.984;2023-04-05T10:32:47;9.00;46.26
47861;HTU21D;33620;52.340;5.984;2023-04-05T10:35:19;9.05;47.60
47861;HTU21D;33620;52.340;5.984;2023-04-05T10:38:08;9.12;46.51
47861;HTU21D;33620;52.340;5.984;2023-04-05T10:40:36;9.19;46.05
47861;HTU21D;33620;52.340;5.984;2023-04-05T10:43:02;9.32;46.97
47861;HTU21D;33620;52.340;5.984;2023-04-05T10:45:28;9.34;43.88
47861;HTU21D;33620;52.340;5.984;2023-04-05T10:48:01;9.37;44.39
47861;HTU21D;33620;52.340;5.984;2023-04-05T10:50:30;9.40;43.00
47861;HTU21D;33620;52.340;5.984;2023-04-05T10:52:56;9.34;42.31
47861;HTU21D;33620;52.340;5.984;2023-04-05T10:55:23;9.39;44.70
47861;HTU21D;33620;52.340;5.984;2023-04-05T10:57:49;9.47;44.46
47861;HTU21D;33620;52.340;5.984;2023-04-05T11:00:14;9.41;42.51
47861;HTU21D;33620;52.340;5.984;2023-04-05T11:02:40;9.44;42.66
47861;HTU21D;33620;52.340;5.984;2023-04-05T11:05:06;9.55;43.60
47861;HTU21D;33620;52.340;5.984;2023-04-05T11:07:41;9.60;42.20
47861;HTU21D;33620;52.340;5.984;2023-04-05T11:10:07;9.69;43.64
47861;HTU21D;33620;52.340;5.984;2023-04-05T11:20:26;9.94;43.13
47861;HTU21D;33620;52.340;5.984;2023-04-05T11:22:54;9.99;43.21
47861;HTU21D;33620;52.340;5.984;2023-04-05T11:25:22;10.03;41.97
47861;HTU21D;33620;52.340;5.984;2023-04-05T11:27:59;9.94;41.13
47861;HTU21D;33620;52.340;5.984;2023-04-05T11:33:08;10.06;40.94
47861;HTU21D;33620;52.340;5.984;2023-04-05T11:35:33;10.07;41.77
47861;HTU21D;33620;52.340;5.984;2023-04-05T11:40:28;10.38;41.62
47861;HTU21D;33620;52.340;5.984;2023-04-05T11:43:11;10.41;36.77
47861;HTU21D;33620;52.340;5.984;2023-04-05T11:45:37;10.39;37.72
47861;HTU21D;33620;52.340;5.984;2023-04-05T11:48:03;10.54;39.90
47861;HTU21D;33620;52.340;5.984;2023-04-05T11:50:29;10.64;39.38
47861;HTU21D;33620;52.340;5.984;2023-04-05T11:53:13;10.68;38.56
47861;HTU21D;33620;52.340;5.984;2023-04-05T11:55:39;10.67;35.99
47861;HTU21D;33620;52.340;5.984;2023-04-05T11:58:21;10.71;37.70
47861;HTU21D;33620;52.340;5.984;2023-04-05T12:00:47;10.73;36.53
47861;HTU21D;33620;52.340;5.984;2023-04-05T12:03:21;10.78;35.31
47861;HTU21D;33620;52.340;5.984;2023-04-05T12:05:52;10.93;36.99
47861;HTU21D;33620;52.340;5.984;2023-04-05T12:08:19;11.05;39.65
47861;HTU21D;33620;52.340;5.984;2023-04-05T12:10:52;11.11;38.43
47861;HTU21D;33620;52.340;5.984;2023-04-05T12:13:27;11.24;37.54
47861;HTU21D;33620;52.340;5.984;2023-04-05T12:15:53;11.28;38.32
47861;HTU21D;33620;52.340;5.984;2023-04-05T12:18:18;11.38;37.77
47861;HTU21D;33620;52.340;5.984;2023-04-05T12:20:43;11.48;36.40
47861;HTU21D;33620;52.340;5.984;2023-04-05T12:23:09;11.55;37.82
47861;HTU21D;33620;52.340;5.984;2023-04-05T12:25:35;11.53;36.35
47861;HTU21D;33620;52.340;5.984;2023-04-05T12:28:03;11.49;35.73
47861;HTU21D;33620;52.340;5.984;2023-04-05T12:30:28;11.45;34.11
47861;HTU21D;33620;52.340;5.984;2023-04-05T12:33:00;11.47;35.31
47861;HTU21D;33620;52.340;5.984;2023-04-05T12:35:31;11.51;30.23
47861;HTU21D;33620;52.340;5.984;2023-04-05T12:38:02;11.53;31.68
47861;HTU21D;33620;52.340;5.984;2023-04-05T12:40:29;11.48;29.75
47861;HTU21D;33620;52.340;5.984;2023-04-05T12:43:14;11.47;30.24
47861;HTU21D;33620;52.340;5.984;2023-04-05T12:45:43;11.56;33.57
47861;HTU21D;33620;52.340;5.984;2023-04-05T12:48:12;11.48;31.47
47861;HTU21D;33620;52.340;5.984;2023-04-05T12:50:45;11.52;32.06
47861;HTU21D;33620;52.340;5.984;2023-04-05T12:53:18;11.61;32.94
47861;HTU21D;33620;52.340;5.984;2023-04-05T12:55:48;11.75;36.11
47861;HTU21D;33620;52.340;5.984;2023-04-05T12:58:13;11.81;34.44
47861;HTU21D;33620;52.340;5.984;2023-04-05T13:00:39;11.72;33.71
47861;HTU21D;33620;52.340;5.984;2023-04-05T13:03:04;11.70;34.62
47861;HTU21D;33620;52.340;5.984;2023-04-05T13:05:30;11.75;35.16
47861;HTU21D;33620;52.340;5.984;2023-04-05T13:07:55;11.92;34.57
47861;HTU21D;33620;52.340;5.984;2023-04-05T13:10:22;12.05;33.89
47861;HTU21D;33620;52.340;5.984;2023-04-05T13:12:48;12.05;34.98
47861;HTU21D;33620;52.340;5.984;2023-04-05T13:15:16;12.13;32.11
47861;HTU21D;33620;52.340;5.984;2023-04-05T13:17:42;12.02;34.99
47861;HTU21D;33620;52.340;5.984;2023-04-05T13:20:09;12.04;33.29
47861;HTU21D;33620;52.340;5.984;2023-04-05T13:22:35;12.03;33.81
47861;HTU21D;33620;52.340;5.984;2023-04-05T13:25:01;12.14;34.87
47861;HTU21D;33620;52.340;5.984;2023-04-05T13:27:26;12.23;33.14
47861;HTU21D;33620;52.340;5.984;2023-04-05T13:29:51;12.19;34.19
47861;HTU21D;33620;52.340;5.984;2023-04-05T13:32:17;12.20;35.05
47861;HTU21D;33620;52.340;5.984;2023-04-05T13:34:42;12.29;36.43
47861;HTU21D;33620;52.340;5.984;2023-04-05T13:37:07;12.36;36.27
47861;HTU21D;33620;52.340;5.984;2023-04-05T13:39:32;12.41;37.17
47861;HTU21D;33620;52.340;5.984;2023-04-05T13:41:58;12.51;34.25
47861;HTU21D;33620;52.340;5.984;2023-04-05T13:44:23;12.47;33.97
47861;HTU21D;33620;52.340;5.984;2023-04-05T13:46:48;12.41;33.52
47861;HTU21D;33620;52.340;5.984;2023-04-05T13:49:14;12.37;34.70
47861;HTU21D;33620;52.340;5.984;2023-04-05T13:51:39;12.41;35.00
47861;HTU21D;33620;52.340;5.984;2023-04-05T13:54:07;12.38;34.37
47861;HTU21D;33620;52.340;5.984;2023-04-05T13:56:35;12.41;34.32
47861;HTU21D;33620;52.340;5.984;2023-04-05T13:59:00;12.48;35.18
47861;HTU21D;33620;52.340;5.984;2023-04-05T14:01:26;12.40;34.37
47861;HTU21D;33620;52.340;5.984;2023-04-05T14:03:51;12.45;35.27
47861;HTU21D;33620;52.340;5.984;2023-04-05T14:06:16;12.55;33.29
47861;HTU21D;33620;52.340;5.984;2023-04-05T14:08:42;12.62;34.32
47861;HTU21D;33620;52.340;5.984;2023-04-05T14:11:07;12.74;34.67
47861;HTU21D;33620;52.340;5.984;2023-04-05T14:13:32;12.82;34.56
47861;HTU21D;33620;52.340;5.984;2023-04-05T14:15:57;12.77;33.46
47861;HTU21D;33620;52.340;5.984;2023-04-05T14:18:23;12.73;33.33
47861;HTU21D;33620;52.340;5.984;2023-04-05T14:20:48;12.80;35.22
47861;HTU21D;33620;52.340;5.984;2023-04-05T14:23:13;12.96;34.01
47861;HTU21D;33620;52.340;5.984;2023-04-05T14:25:38;13.00;32.96
47861;HTU21D;33620;52.340;5.984;2023-04-05T14:28:04;12.92;33.57
47861;HTU21D;33620;52.340;5.984;2023-04-05T14:30:29;12.94;35.33
47861;HTU21D;33620;52.340;5.984;2023-04-05T14:32:55;13.06;33.97
47861;HTU21D;33620;52.340;5.984;2023-04-05T14:35:20;13.07;34.60
47861;HTU21D;33620;52.340;5.984;2023-04-05T14:37:45;13.03;34.47
47861;HTU21D;33620;52.340;5.984;2023-04-05T14:40:11;13.05;34.57
47861;HTU21D;33620;52.340;5.984;2023-04-05T14:42:36;13.14;35.14
47861;HTU21D;33620;52.340;5.984;2023-04-05T14:45:01;13.17;34.19
47861;HTU21D;33620;52.340;5.984;2023-04-05T14:47:27;13.20;34.12
47861;HTU21D;33620;52.340;5.984;2023-04-05T14:49:52;13.22;35.69
47861;HTU21D;33620;52.340;5.984;2023-04-05T14:52:17;13.20;34.03
47861;HTU21D;33620;52.340;5.984;2023-04-05T14:54:42;13.22;34.33
47861;HTU21D;33620;52.340;5.984;2023-04-05T14:57:09;13.23;34.60
47861;HTU21D;33620;52.340;5.984;2023-04-05T14:59:34;13.26;35.32
47861;HTU21D;33620;52.340;5.984;2023-04-05T15:01:59;13.29;33.28
47861;HTU21D;33620;52.340;5.984;2023-04-05T15:04:25;13.22;33.50
47861;HTU21D;33620;52.340;5.984;2023-04-05T15:06:50;13.15;33.63
47861;HTU21D;33620;52.340;5.984;2023-04-05T15:09:15;13.09;34.71
47861;HTU21D;33620;52.340;5.984;2023-04-05T15:11:41;13.02;33.50
47861;HTU21D;33620;52.340;5.984;2023-04-05T15:14:07;13.00;34.18
47861;HTU21D;33620;52.340;5.984;2023-04-05T15:16:32;12.94;34.89
47861;HTU21D;33620;52.340;5.984;2023-04-05T15:18:57;12.91;34.44
47861;HTU21D;33620;52.340;5.984;2023-04-05T15:21:23;12.87;35.17
47861;HTU21D;33620;52.340;5.984;2023-04-05T15:23:49;12.89;35.00
47861;HTU21D;33620;52.340;5.984;2023-04-05T15:26:14;12.91;35.10
47861;HTU21D;33620;52.340;5.984;2023-04-05T15:28:39;12.89;35.21
47861;HTU21D;33620;52.340;5.984;2023-04-05T15:31:05;12.89;36.43
47861;HTU21D;33620;52.340;5.984;2023-04-05T15:33:30;12.93;35.08
47861;HTU21D;33620;52.340;5.984;2023-04-05T15:35:55;12.93;35.41
47861;HTU21D;33620;52.340;5.984;2023-04-05T15:38:21;12.96;34.41
47861;HTU21D;33620;52.340;5.984;2023-04-05T15:40:46;12.94;34.96
47861;HTU21D;33620;52.340;5.984;2023-04-05T15:43:13;12.89;35.00
47861;HTU21D;33620;52.340;5.984;2023-04-05T15:45:38;12.72;34.87
47861;HTU21D;33620;52.340;5.984;2023-04-05T15:48:04;12.77;36.30
47861;HTU21D;33620;52.340;5.984;2023-04-05T15:50:29;12.79;35.99
47861;HTU21D;33620;52.340;5.984;2023-04-05T15:52:54;12.82;35.12
47861;HTU21D;33620;52.340;5.984;2023-04-05T15:55:20;12.80;35.89